Time;durP1;ratioP1;P1;durP2;ratioP2;P2;SDS_P1;SDS_P2;PMS_P1;PMS_P2;Temp;Humidity;BMP_temperature;BMP_pressure;BME280_temperature;BME280_humidity;BME280_pressure;Samples;Min_cycle;Max_cycle;Signal;HPM_P1;HPM_P2
2021/09/29 00:03:02;;;;;;;5.90;2.90;;;;;;;16.27;58.74;98205.44;8448237;28;20198;-64
2021/09/29 00:07:05;;;;;;;3.20;2.87;;;;;;;16.28;58.85;98214.13;8449340;28;20202;-64
2021/09/29 00:11:08;;;;;;;6.77;3.23;;;;;;;16.30;58.72;98210.50;8449396;28;20202;-64
2021/09/29 00:15:14;;;;;;;6.07;3.07;;;;;;;16.31;58.67;98199.06;8449210;28;20533;-64
2021/09/29 00:19:17;;;;;;;4.60;3.20;;;;;;;16.32;58.94;98198.16;8449227;28;20199;-64
2021/09/29 00:23:20;;;;;;;3.97;2.83;;;;;;;16.32;59.00;98195.53;8449139;28;20198;-64
2021/09/29 00:27:23;;;;;;;4.80;3.10;;;;;;;16.27;59.56;98178.47;8448936;28;20198;-64
2021/09/29 00:31:35;;;;;;;5.07;3.10;;;;;;;16.24;59.73;98174.31;8448877;28;20210;-63
2021/09/29 00:35:38;;;;;;;6.77;2.93;;;;;;;16.21;59.64;98177.09;8448655;28;20237;-64
2021/09/29 00:39:43;;;;;;;4.33;3.03;;;;;;;16.25;59.50;98177.75;8449029;28;20482;-65
2021/09/29 00:43:46;;;;;;;5.40;2.97;;;;;;;16.21;59.04;98177.09;8449152;28;20206;-65
2021/09/29 00:47:50;;;;;;;6.50;2.67;;;;;;;16.15;59.04;98161.81;8448707;28;20398;-64
2021/09/29 00:51:53;;;;;;;5.47;2.90;;;;;;;16.18;59.04;98152.03;8448735;28;20202;-64
2021/09/29 00:55:56;;;;;;;3.93;2.83;;;;;;;16.17;59.55;98146.88;8448447;28;20564;-64
2021/09/29 01:00:00;;;;;;;4.10;3.07;;;;;;;16.25;60.03;98142.00;8448690;28;20522;-64
2021/09/29 01:04:06;;;;;;;4.60;3.47;;;;;;;16.22;59.88;98137.81;8448463;28;20205;-64
2021/09/29 01:08:13;;;;;;;5.30;2.97;;;;;;;16.17;59.40;98132.03;8453480;28;20198;-63
2021/09/29 01:12:23;;;;;;;5.57;3.20;;;;;;;16.06;60.09;98131.88;8454547;28;20213;-63
2021/09/29 01:16:27;;;;;;;4.00;3.07;;;;;;;16.06;59.83;98124.06;8454304;28;20556;-63
2021/09/29 01:20:36;;;;;;;5.00;2.50;;;;;;;16.12;59.46;98117.59;8454281;28;20378;-63
2021/09/29 01:24:44;;;;;;;3.60;3.00;;;;;;;16.07;59.96;98111.81;8454164;28;20387;-63
2021/09/29 01:28:51;;;;;;;3.30;2.87;;;;;;;16.14;59.92;98107.88;8453927;28;20202;-63
2021/09/29 01:32:54;;;;;;;4.80;3.00;;;;;;;16.16;60.16;98108.63;8453754;28;20219;-63
2021/09/29 01:36:59;;;;;;;3.20;2.90;;;;;;;16.16;59.61;98106.88;8453480;28;20226;-63
2021/09/29 01:41:02;;;;;;;4.80;2.70;;;;;;;16.16;60.03;98121.69;8453417;28;20208;-63
2021/09/29 01:45:10;;;;;;;3.40;3.10;;;;;;;16.14;60.11;98120.94;8453257;28;20202;-63
2021/09/29 01:49:16;;;;;;;4.30;3.27;;;;;;;16.15;60.07;98120.84;8453192;28;20213;-63
2021/09/29 01:53:19;;;;;;;4.47;3.10;;;;;;;16.16;60.20;98122.53;8453183;28;20208;-63
2021/09/29 01:57:22;;;;;;;6.87;3.20;;;;;;;16.20;60.52;98120.53;8452610;28;20458;-63
2021/09/29 02:01:28;;;;;;;4.63;3.40;;;;;;;16.16;60.79;98126.91;8452668;28;20493;-63
2021/09/29 02:05:33;;;;;;;6.20;3.13;;;;;;;16.23;60.37;98131.63;8452586;28;20210;-63
2021/09/29 02:09:35;;;;;;;4.27;3.20;;;;;;;16.17;60.69;98146.88;8452461;28;20198;-64
2021/09/29 02:13:38;;;;;;;3.20;2.87;;;;;;;16.30;60.73;98145.16;8452471;28;20494;-64
2021/09/29 02:17:42;;;;;;;5.23;3.60;;;;;;;16.31;60.77;98141.59;8452099;28;20229;-64
2021/09/29 02:21:46;;;;;;;6.53;3.47;;;;;;;16.25;60.85;98149.84;8452344;28;20198;-63
2021/09/29 02:25:49;;;;;;;3.83;2.87;;;;;;;16.26;61.27;98148.03;8451962;28;20209;-63
2021/09/29 02:29:52;;;;;;;3.67;3.10;;;;;;;16.32;60.86;98155.50;8451917;28;20203;-63
2021/09/29 02:33:56;;;;;;;3.03;2.83;;;;;;;16.38;61.03;98145.50;8451659;28;20230;-63
2021/09/29 02:37:59;;;;;;;4.27;3.27;;;;;;;16.38;61.46;98148.09;8451581;28;20226;-63
2021/09/29 02:42:04;;;;;;;4.37;3.50;;;;;;;16.42;61.42;98138.28;8451383;28;20401;-63
2021/09/29 02:46:07;;;;;;;5.27;3.50;;;;;;;16.47;61.46;98135.34;8451611;28;20206;-63
2021/09/29 02:50:11;;;;;;;4.87;3.73;;;;;;;16.37;61.82;98132.50;8451521;28;20198;-63
2021/09/29 02:54:14;;;;;;;4.37;3.60;;;;;;;16.42;61.64;98127.84;8451221;28;20205;-63
2021/09/29 02:58:17;;;;;;;4.20;3.80;;;;;;;16.42;62.40;98130.44;8450623;28;20241;-63
2021/09/29 03:02:20;;;;;;;4.77;4.23;;;;;;;16.40;62.56;98132.31;8450938;28;20198;-64
2021/09/29 03:06:24;;;;;;;4.53;3.90;;;;;;;16.49;62.79;98118.66;8450771;28;20206;-63
2021/09/29 03:10:30;;;;;;;5.40;4.10;;;;;;;16.41;63.09;98111.31;8450519;28;20202;-63
2021/09/29 03:14:32;;;;;;;4.63;4.23;;;;;;;16.44;63.42;98112.06;8450689;28;20206;-63
2021/09/29 03:18:38;;;;;;;4.10;3.70;;;;;;;16.49;63.62;98107.38;8450219;28;20233;-63
2021/09/29 03:22:42;;;;;;;4.60;4.20;;;;;;;16.50;63.46;98098.56;8450400;28;20221;-63
2021/09/29 03:26:45;;;;;;;5.57;4.27;;;;;;;16.47;63.34;98102.25;8450098;28;20209;-63
2021/09/29 03:30:48;;;;;;;5.20;4.53;;;;;;;16.48;63.65;98114.34;8449586;28;20198;-63
2021/09/29 03:34:51;;;;;;;4.40;4.00;;;;;;;16.47;64.00;98119.66;8449712;28;20245;-63
2021/09/29 03:38:55;;;;;;;5.90;4.33;;;;;;;16.48;63.37;98132.66;8449721;28;20226;-63
2021/09/29 03:42:58;;;;;;;4.20;3.70;;;;;;;16.51;63.73;98131.63;8449826;28;20198;-63
2021/09/29 03:47:01;;;;;;;5.07;4.23;;;;;;;16.47;63.85;98123.16;8449580;28;20211;-63
2021/09/29 03:51:06;;;;;;;4.70;4.30;;;;;;;16.48;63.77;98113.53;8449806;28;20600;-63
2021/09/29 03:55:12;;;;;;;5.47;4.60;;;;;;;16.43;64.17;98103.38;8449442;28;20502;-63
2021/09/29 03:59:14;;;;;;;4.87;4.43;;;;;;;16.45;64.00;98109.34;8449427;28;20198;-63
2021/09/29 04:03:18;;;;;;;5.77;4.30;;;;;;;16.49;63.69;98096.91;8449333;28;20198;-63
2021/09/29 04:07:21;;;;;;;5.60;4.70;;;;;;;16.40;64.11;98108.81;8449298;28;20203;-63
2021/09/29 04:11:25;;;;;;;6.97;4.67;;;;;;;16.40;64.17;98120.09;8449283;28;20489;-63
2021/09/29 04:15:28;;;;;;;5.60;5.00;;;;;;;16.38;63.71;98126.38;8449311;28;20497;-63
2021/09/29 04:19:31;;;;;;;5.80;5.13;;;;;;;16.24;64.03;98129.88;8448582;28;20198;-63
2021/09/29 04:23:36;;;;;;;5.63;5.13;;;;;;;16.25;63.92;98118.47;8449096;28;20198;-63
2021/09/29 04:27:40;;;;;;;8.40;6.50;;;;;;;16.08;64.48;98119.56;8448920;28;20206;-63
2021/09/29 04:31:43;;;;;;;6.10;5.50;;;;;;;16.22;64.18;98116.91;8448944;28;20269;-63
2021/09/29 04:35:46;;;;;;;8.93;7.00;;;;;;;15.55;66.00;98119.38;8448673;28;20232;-63
2021/09/29 04:39:49;;;;;;;6.70;6.00;;;;;;;15.87;65.60;98115.72;8449015;28;20272;-63
2021/09/29 04:43:53;;;;;;;8.37;5.90;;;;;;;16.05;64.90;98126.75;8455202;28;20433;-63
2021/09/29 04:47:56;;;;;;;7.80;5.77;;;;;;;16.18;64.11;98128.50;8455178;28;20520;-63
2021/09/29 04:51:59;;;;;;;7.40;6.60;;;;;;;16.18;64.21;98122.41;8454926;28;20198;-63
2021/09/29 04:56:02;;;;;;;8.87;6.10;;;;;;;16.27;64.06;98121.00;8453837;28;20542;-63
2021/09/29 05:00:07;;;;;;;7.67;6.47;;;;;;;16.19;64.52;98119.72;8453567;28;20191;-63
2021/09/29 05:04:11;;;;;;;6.90;6.10;;;;;;;16.26;64.89;98124.53;8453683;28;20205;-63
2021/09/29 05:08:25;;;;;;;7.53;6.70;;;;;;;16.27;64.68;98121.00;8453966;28;20194;-63
2021/09/29 05:12:31;;;;;;;6.60;6.00;;;;;;;16.31;64.90;98123.28;8454512;28;20199;-63
2021/09/29 05:16:39;;;;;;;7.20;6.47;;;;;;;16.36;64.27;98123.84;8453724;28;20222;-64
2021/09/29 05:20:43;;;;;;;7.37;6.60;;;;;;;16.36;64.16;98131.69;8453767;28;20195;-64
2021/09/29 05:24:46;;;;;;;8.07;7.10;;;;;;;16.37;64.27;98130.75;8453724;28;20411;-63
2021/09/29 05:28:51;;;;;;;7.63;6.83;;;;;;;16.40;64.18;98135.75;8453505;28;20195;-63
2021/09/29 05:32:55;;;;;;;10.27;7.23;;;;;;;16.32;64.42;98143.28;8452371;28;20222;-63
2021/09/29 05:36:58;;;;;;;8.47;7.60;;;;;;;16.34;64.65;98141.41;8453001;28;20218;-64
2021/09/29 05:41:01;;;;;;;7.57;6.77;;;;;;;16.37;64.38;98135.97;8453054;28;20199;-63
2021/09/29 05:45:05;;;;;;;7.90;7.10;;;;;;;16.21;64.93;98143.97;8452985;28;20207;-63
2021/09/29 05:49:09;;;;;;;9.27;7.20;;;;;;;16.26;64.73;98154.13;8452796;28;20210;-63
2021/09/29 05:53:12;;;;;;;9.57;6.87;;;;;;;16.35;64.79;98165.75;8453035;28;20504;-63
2021/09/29 05:57:16;;;;;;;7.77;6.97;;;;;;;16.34;64.39;98158.88;8452700;28;20238;-63
2021/09/29 06:01:19;;;;;;;8.30;7.53;;;;;;;16.43;64.02;98153.03;8452603;28;20205;-63
2021/09/29 06:05:23;;;;;;;8.23;7.37;;;;;;;16.35;64.02;98158.75;8452587;28;20206;-63
2021/09/29 06:09:26;;;;;;;12.33;7.90;;;;;;;16.39;64.05;98164.59;8452308;28;20221;-64
2021/09/29 06:13:29;;;;;;;8.27;7.47;;;;;;;16.33;64.29;98165.00;8451456;28;20198;-63
2021/09/29 06:17:38;;;;;;;9.77;7.20;;;;;;;16.39;63.94;98159.38;8451195;28;20223;-64
2021/09/29 06:21:43;;;;;;;11.17;7.50;;;;;;;16.50;63.49;98150.84;8451231;28;20191;-63
2021/09/29 06:25:46;;;;;;;17.43;8.03;;;;;;;16.50;64.03;98153.47;8450949;28;20202;-63
2021/09/29 06:29:51;;;;;;;15.67;8.33;;;;;;;16.41;64.43;98158.38;8451058;28;20201;-63
2021/09/29 06:33:54;;;;;;;11.70;7.80;;;;;;;16.53;63.66;98158.50;8448347;28;20210;-64
2021/09/29 06:38:00;;;;;;;10.87;7.87;;;;;;;16.57;63.76;98166.03;8450496;28;20215;-63
2021/09/29 06:42:03;;;;;;;12.17;8.13;;;;;;;16.60;63.90;98175.44;8451576;28;20209;-63
2021/09/29 06:46:06;;;;;;;11.33;8.00;;;;;;;16.73;63.26;98176.31;8451402;28;20209;-63
2021/09/29 06:50:11;;;;;;;12.30;8.17;;;;;;;16.88;63.17;98176.28;8451295;28;20257;-63
2021/09/29 06:54:16;;;;;;;13.20;7.80;;;;;;;17.14;63.66;98177.16;8450959;28;20198;-63
2021/09/29 06:58:20;;;;;;;8.67;7.30;;;;;;;16.96;62.89;98168.75;8450646;28;20245;-63
2021/09/29 07:02:23;;;;;;;9.03;7.27;;;;;;;17.08;62.56;98169.72;8450390;28;20273;-63
2021/09/29 07:06:26;;;;;;;11.83;7.03;;;;;;;17.09;62.25;98189.69;8450538;28;20202;-63
2021/09/29 07:10:31;;;;;;;6.90;5.77;;;;;;;17.56;61.08;98186.44;8450660;28;20198;-63
2021/09/29 07:14:36;;;;;;;11.47;6.77;;;;;;;17.56;60.94;98199.53;8450568;28;20198;-63
2021/09/29 07:18:40;;;;;;;7.10;5.83;;;;;;;17.69;62.90;98196.91;8450405;28;20230;-65
2021/09/29 07:22:43;;;;;;;10.00;5.83;;;;;;;18.20;58.95;98201.22;8450373;28;20221;-63
2021/09/29 07:26:47;;;;;;;8.63;5.67;;;;;;;17.97;58.61;98205.47;8450267;28;20206;-63
2021/09/29 07:30:52;;;;;;;8.87;4.93;;;;;;;17.96;59.21;98207.25;8450163;28;20495;-63
2021/09/29 07:34:54;;;;;;;8.03;4.83;;;;;;;17.79;58.75;98211.03;8449848;28;20218;-63
2021/09/29 07:38:57;;;;;;;9.03;4.97;;;;;;;18.19;57.98;98209.19;8449716;28;20233;-64
2021/09/29 07:43:02;;;;;;;6.07;3.90;;;;;;;18.41;56.60;98217.19;8449809;28;20217;-63
2021/09/29 07:47:05;;;;;;;5.67;3.40;;;;;;;19.35;54.18;98207.63;8449725;28;20207;-63
2021/09/29 07:51:09;;;;;;;5.33;3.13;;;;;;;19.73;51.67;98215.19;8449370;28;20243;-63
2021/09/29 07:55:13;;;;;;;7.57;3.37;;;;;;;19.09;52.16;98210.41;8450003;28;20210;-64
2021/09/29 07:59:18;;;;;;;6.90;3.17;;;;;;;19.39;51.66;98211.69;8449286;28;20226;-63
2021/09/29 08:03:21;;;;;;;8.63;2.53;;;;;;;20.34;56.13;98227.06;8448063;28;20205;-68
2021/09/29 08:07:24;;;;;;;11.67;2.57;;;;;;;20.73;53.45;98224.81;8449451;28;20397;-69
2021/09/29 08:11:29;;;;;;;11.00;3.13;;;;;;;20.88;52.89;98222.72;8449110;28;20199;-69
2021/09/29 08:15:33;;;;;;;8.43;2.53;;;;;;;21.48;48.58;98226.47;8452169;28;20191;-69
2021/09/29 08:19:36;;;;;;;5.23;2.30;;;;;;;21.11;49.56;98233.16;8455737;28;20224;-69
2021/09/29 08:23:41;;;;;;;6.87;2.60;;;;;;;21.12;50.03;98240.94;8455656;28;20359;-69
2021/09/29 08:28:04;;;;;;;6.03;2.20;;;;;;;21.91;47.79;98231.66;8455293;28;20210;-68
2021/09/29 08:32:17;;;;;;;9.07;2.90;;;;;;;22.44;46.09;98239.31;8455748;28;20221;-68
2021/09/29 08:36:23;;;;;;;7.07;2.63;;;;;;;22.52;45.71;98230.72;8455810;28;20206;-69
2021/09/29 08:40:41;;;;;;;5.17;1.90;;;;;;;22.89;44.43;98236.16;8455384;28;20241;-69
2021/09/29 08:44:48;;;;;;;7.43;2.23;;;;;;;23.10;41.96;98235.22;8455691;28;20208;-68
2021/09/29 08:49:00;;;;;;;6.83;1.80;;;;;;;23.48;41.40;98236.94;8455546;28;20202;-68
2021/09/29 08:57:37;;;;;;;6.83;2.57;;;;;;;23.98;40.50;98233.19;8454291;28;20230;-68
2021/09/29 09:15:09;;;;;;;5.80;1.80;;;;;;;24.46;38.97;98244.47;8454558;28;20198;-65
2021/09/29 09:19:14;;;;;;;13.07;2.37;;;;;;;24.75;37.98;98233.69;8453951;28;20230;-67
2021/09/29 09:23:18;;;;;;;4.27;1.63;;;;;;;25.10;37.06;98235.50;8453498;28;20261;-66
2021/09/29 09:27:21;;;;;;;5.93;1.70;;;;;;;25.00;36.70;98241.84;8452179;28;20190;-66
2021/09/29 09:31:24;;;;;;;6.43;1.87;;;;;;;24.86;37.57;98238.75;8452809;28;20191;-66
2021/09/29 09:35:31;;;;;;;8.67;1.90;;;;;;;23.90;37.82;98241.03;8420270;28;20412;-66
2021/09/29 09:39:35;;;;;;;4.87;1.80;;;;;;;24.23;38.09;98238.75;8419902;28;20227;-65
2021/09/29 09:43:38;;;;;;;9.93;2.30;;;;;;;23.24;40.95;98240.06;8419835;28;20199;-66
2021/09/29 09:47:44;;;;;;;4.60;1.73;;;;;;;23.85;38.32;98237.97;8420057;28;20211;-66
2021/09/29 09:51:49;;;;;;;3.93;1.80;;;;;;;23.30;39.01;98236.84;8419809;28;20221;-65
2021/09/29 09:55:53;;;;;;;5.90;1.83;;;;;;;23.26;39.84;98234.63;8419117;28;20228;-66
2021/09/29 09:59:56;;;;;;;3.73;1.40;;;;;;;24.24;36.99;98229.81;8443020;28;20237;-65
2021/09/29 10:04:10;;;;;;;4.83;1.60;;;;;;;23.13;37.79;98227.00;8452869;28;20206;-65
2021/09/29 10:08:16;;;;;;;7.13;1.57;;;;;;;22.73;38.78;98230.59;8452974;28;20512;-65
2021/09/29 10:12:25;;;;;;;3.83;1.53;;;;;;;23.90;36.88;98223.34;8452494;28;20243;-66
2021/09/29 10:29:43;;;;;;;3.70;1.30;;;;;;;25.16;33.75;98207.56;8452137;28;20202;-70
2021/09/29 10:33:59;;;;;;;4.40;1.40;;;;;;;25.22;32.84;98212.22;8451771;28;20282;-70
2021/09/29 10:42:52;;;;;;;4.73;1.50;;;;;;;24.36;34.04;98208.31;8450808;28;20204;-71
2021/09/29 10:47:12;;;;;;;2.37;1.03;;;;;;;24.35;32.36;98205.81;8451501;28;20198;-70
2021/09/29 11:05:00;;;;;;;5.03;1.20;;;;;;;24.35;34.02;98200.50;8450009;28;20202;-68
2021/09/29 11:09:24;;;;;;;6.60;1.17;;;;;;;23.92;32.84;98194.94;8448171;28;20199;-67
2021/09/29 11:31:03;;;;;;;3.27;1.33;;;;;;;22.94;34.13;98182.94;8450149;28;20206;-67
2021/09/29 11:35:17;;;;;;;6.13;1.07;;;;;;;22.70;35.04;98186.03;8450019;28;20447;-67
2021/09/29 11:49:10;;;;;;;3.77;1.07;;;;;;;23.53;33.60;98181.00;8449703;28;20229;-66
2021/09/29 12:10:38;;;;;;;3.43;1.37;;;;;;;21.93;37.57;98162.00;8449389;28;20276;-66
2021/09/29 12:14:45;;;;;;;7.00;1.50;;;;;;;21.78;39.29;98155.44;8449143;28;20379;-66
2021/09/29 12:18:54;;;;;;;3.17;1.20;;;;;;;22.05;38.89;98153.03;8449292;28;20225;-66
2021/09/29 12:22:59;;;;;;;4.50;1.30;;;;;;;21.76;36.91;98147.69;8449267;28;20212;-67
2021/09/29 12:27:03;;;;;;;2.90;1.27;;;;;;;22.07;36.80;98137.06;8448263;28;20194;-66
2021/09/29 12:35:38;;;;;;;6.07;1.30;;;;;;;22.61;35.35;98137.53;8432453;28;20215;-67
2021/09/29 12:39:42;;;;;;;3.87;1.30;;;;;;;22.75;34.51;98123.91;8447874;28;20217;-70
2021/09/29 12:44:08;;;;;;;5.93;1.40;;;;;;;22.04;35.87;98129.41;8446075;28;20193;-70
2021/09/29 12:48:13;;;;;;;4.20;1.20;;;;;;;21.78;36.27;98126.44;8447835;28;20194;-69
2021/09/29 12:52:27;;;;;;;6.83;1.43;;;;;;;21.91;36.74;98142.84;8448108;28;20195;-70
2021/09/29 12:56:30;;;;;;;3.33;1.00;;;;;;;22.08;36.33;98140.53;8448353;28;20233;-70
2021/09/29 13:00:34;;;;;;;4.30;1.00;;;;;;;22.02;36.40;98137.47;8448258;28;20235;-69
2021/09/29 13:04:39;;;;;;;5.13;1.40;;;;;;;21.76;36.78;98125.75;8454597;28;20198;-69
2021/09/29 13:08:42;;;;;;;3.67;1.20;;;;;;;22.92;35.02;98130.25;8454764;28;20524;-69
2021/09/29 13:12:45;;;;;;;4.33;1.20;;;;;;;22.11;36.24;98141.09;8454348;28;20205;-69
2021/09/29 13:16:48;;;;;;;6.00;1.20;;;;;;;22.10;37.05;98135.94;8454264;28;20216;-69
2021/09/29 13:20:55;;;;;;;5.37;0.97;;;;;;;22.12;37.10;98131.38;8454038;28;20237;-69
2021/09/29 13:25:36;;;;;;;6.73;1.50;;;;;;;21.77;37.35;98133.53;8454075;28;20201;-68
2021/09/29 13:38:23;;;;;;;5.00;1.27;;;;;;;21.77;39.70;98133.53;8453981;28;20391;-69
2021/09/29 13:42:26;;;;;;;2.70;1.00;;;;;;;21.93;38.39;98121.63;8453668;28;20404;-68
2021/09/29 13:46:29;;;;;;;3.70;1.10;;;;;;;21.75;39.48;98117.00;8453280;28;20217;-69
2021/09/29 13:50:32;;;;;;;4.83;1.20;;;;;;;21.96;39.95;98116.91;8453471;28;20215;-69
2021/09/29 13:54:37;;;;;;;5.97;1.23;;;;;;;22.15;40.48;98121.38;8453432;28;20213;-68
2021/09/29 13:58:54;;;;;;;12.40;1.50;;;;;;;22.07;39.46;98118.63;8452775;28;20260;-66
2021/09/29 14:03:19;;;;;;;3.30;1.10;;;;;;;21.77;39.86;98119.53;8452854;28;20216;-67
2021/09/29 14:29:21;;;;;;;6.67;1.20;;;;;;;21.27;39.66;98104.50;8452029;28;20212;-67
2021/09/29 14:33:26;;;;;;;6.20;1.10;;;;;;;21.13;40.76;98126.72;8451820;28;20231;-72
2021/09/29 14:37:29;;;;;;;6.17;1.20;;;;;;;20.85;44.45;98194.03;8451624;28;20206;-68
2021/09/29 14:41:32;;;;;;;5.27;1.33;;;;;;;19.89;50.65;98203.47;8451447;28;20227;-73
2021/09/29 14:45:37;;;;;;;5.97;1.40;;;;;;;20.14;50.08;98212.88;8451504;28;20211;-72
2021/09/29 14:49:41;;;;;;;7.30;1.33;;;;;;;20.10;51.93;98232.47;8451345;28;20541;-72
2021/09/29 14:53:48;;;;;;;30.10;2.70;;;;;;;20.11;51.69;98227.13;8451132;28;20210;-73
2021/09/29 14:57:51;;;;;;;7.33;1.43;;;;;;;20.36;50.82;98233.03;8451022;28;20223;-74
2021/09/29 15:01:55;;;;;;;7.90;1.57;;;;;;;20.20;52.73;98233.44;8449646;28;20230;-73
2021/09/29 15:05:58;;;;;;;5.13;1.20;;;;;;;20.30;51.80;98233.53;8450427;28;20197;-74
2021/09/29 15:10:01;;;;;;;8.03;1.30;;;;;;;20.29;52.54;98253.72;8450380;28;20199;-73
2021/09/29 15:14:09;;;;;;;5.43;1.20;;;;;;;20.27;52.94;98250.38;8450728;28;20199;-73
2021/09/29 15:18:19;;;;;;;2.83;1.17;;;;;;;20.25;53.12;98243.59;8450693;28;20195;-73
2021/09/29 15:31:24;;;;;;;6.00;1.03;;;;;;;20.13;53.18;98263.81;8450353;28;20204;-73
2021/09/29 15:48:32;;;;;;;5.00;1.00;;;;;;;20.02;53.46;98272.53;8448796;28;20401;-72
2021/09/29 16:01:35;;;;;;;3.27;0.70;;;;;;;20.00;52.46;98292.84;8394459;28;20533;-72
2021/09/29 16:05:47;;;;;;;6.33;1.00;;;;;;;19.84;52.49;98292.38;8449615;28;20213;-73
2021/09/29 16:10:17;;;;;;;1.23;0.70;;;;;;;19.48;51.15;98308.16;8449501;28;20198;-73
2021/09/29 16:31:42;;;;;;;1.33;0.67;;;;;;;18.72;52.17;98346.94;8415077;28;20202;-64
2021/09/29 16:35:50;;;;;;;3.07;0.60;;;;;;;18.73;52.49;98353.00;8450204;28;20227;-64
2021/09/29 16:39:53;;;;;;;12.93;0.97;;;;;;;18.64;52.42;98357.16;8455431;28;20226;-67
2021/09/29 16:43:57;;;;;;;3.00;0.60;;;;;;;18.63;52.20;98378.22;8455497;28;20198;-64
2021/09/29 16:48:00;;;;;;;4.23;0.77;;;;;;;18.49;53.11;98387.09;8455428;28;20198;-64
2021/09/29 16:52:07;;;;;;;1.03;0.73;;;;;;;18.51;52.93;98400.91;8455150;28;20209;-64
2021/09/29 16:56:11;;;;;;;1.77;1.40;;;;;;;18.30;54.53;98405.88;8454711;28;20222;-65
2021/09/29 17:00:23;;;;;;;4.07;0.90;;;;;;;18.27;54.00;98413.94;8454714;28;20222;-65
2021/09/29 17:04:26;;;;;;;3.30;0.80;;;;;;;18.08;54.06;98409.13;8455083;28;20198;-65
2021/09/29 17:08:29;;;;;;;1.00;0.70;;;;;;;18.19;53.05;98416.25;8454663;28;20198;-65
2021/09/29 17:12:34;;;;;;;3.17;0.77;;;;;;;18.20;53.53;98417.91;8454495;28;20208;-65
2021/09/29 17:16:39;;;;;;;1.03;0.70;;;;;;;18.14;53.58;98417.41;8454639;28;20386;-65
2021/09/29 17:20:42;;;;;;;2.47;0.77;;;;;;;18.03;53.63;98427.78;8454062;28;20235;-65
2021/09/29 17:24:45;;;;;;;0.80;0.50;;;;;;;17.87;53.93;98440.22;8454226;28;20199;-65
2021/09/29 17:28:54;;;;;;;2.27;0.77;;;;;;;18.02;53.62;98443.59;8453908;28;20198;-65
2021/09/29 17:33:17;;;;;;;2.47;0.80;;;;;;;17.89;53.95;98454.06;8453879;28;20414;-64
2021/09/29 17:37:37;;;;;;;1.13;0.50;;;;;;;17.87;53.67;98442.84;8453721;28;20209;-64
2021/09/29 17:54:42;;;;;;;1.37;0.60;;;;;;;17.64;54.34;98468.75;8453097;28;20220;-65
2021/09/29 17:58:45;;;;;;;1.70;0.80;;;;;;;17.61;54.62;98473.34;8453004;28;20226;-65
2021/09/29 18:02:53;;;;;;;1.13;0.83;;;;;;;17.43;54.96;98478.81;8452952;28;20226;-65
2021/09/29 18:07:13;;;;;;;14.37;3.30;;;;;;;18.20;58.26;98480.81;8453179;28;20210;-71
2021/09/29 18:11:16;;;;;;;8.27;2.03;;;;;;;18.46;56.30;98490.38;8452944;28;20202;-71
2021/09/29 18:15:19;;;;;;;7.43;1.50;;;;;;;18.39;55.05;98494.41;8452378;28;20210;-71
2021/09/29 18:19:25;;;;;;;0.90;0.53;;;;;;;17.97;53.53;98505.03;8452197;28;20205;-65
2021/09/29 18:23:29;;;;;;;1.00;0.60;;;;;;;17.67;53.83;98507.84;8452152;28;20229;-65
2021/09/29 18:27:51;;;;;;;2.43;0.60;;;;;;;17.62;54.27;98512.53;8452193;28;20206;-65
2021/09/29 18:31:54;;;;;;;0.70;0.50;;;;;;;17.46;54.81;98517.91;8452082;28;20206;-65
2021/09/29 18:35:58;;;;;;;1.90;0.60;;;;;;;17.46;55.05;98528.38;8451447;28;20529;-64
2021/09/29 18:40:02;;;;;;;2.87;0.83;;;;;;;17.29;55.26;98550.38;8451573;28;20204;-65
2021/09/29 18:44:07;;;;;;;1.03;0.60;;;;;;;17.26;55.12;98545.34;8451652;28;20199;-65
2021/09/29 18:48:10;;;;;;;1.33;0.70;;;;;;;17.21;55.51;98547.41;8451493;28;20204;-65
2021/09/29 18:52:14;;;;;;;2.27;0.97;;;;;;;17.05;55.84;98539.66;8451495;28;20202;-65
2021/09/29 18:56:31;;;;;;;1.63;0.80;;;;;;;17.10;55.81;98548.06;8450073;28;20232;-65
2021/09/29 19:09:24;;;;;;;1.07;0.80;;;;;;;16.83;56.40;98563.69;8425134;28;20190;-65
2021/09/29 19:13:29;;;;;;;1.27;0.70;;;;;;;16.98;56.24;98572.38;8449852;28;20514;-65
2021/09/29 19:17:32;;;;;;;2.13;0.80;;;;;;;17.05;55.69;98568.44;8447678;28;20202;-65
2021/09/29 19:21:35;;;;;;;1.43;0.87;;;;;;;17.10;55.68;98573.41;8449522;28;20215;-65
2021/09/29 19:25:38;;;;;;;0.93;0.70;;;;;;;16.97;56.31;98573.31;8449645;28;20195;-65
2021/09/29 19:29:42;;;;;;;2.50;0.90;;;;;;;17.04;55.87;98586.84;8449474;28;20220;-65
2021/09/29 19:33:45;;;;;;;1.57;0.70;;;;;;;16.93;55.98;98584.91;8449268;28;20211;-65
2021/09/29 19:37:49;;;;;;;1.47;0.80;;;;;;;16.84;56.13;98588.06;8446585;28;20221;-65
2021/09/29 19:41:52;;;;;;;2.20;0.87;;;;;;;16.88;55.96;98590.41;8449016;28;20224;-65
2021/09/29 19:46:15;;;;;;;1.93;0.80;;;;;;;16.46;57.24;98572.84;8446736;28;20190;-65
2021/09/29 20:07:53;;;;;;;2.93;0.90;;;;;;;16.68;56.55;98599.41;8446606;28;20386;-65
2021/09/29 20:11:56;;;;;;;3.40;1.10;;;;;;;16.71;56.16;98596.59;8455150;28;20198;-65
2021/09/29 20:15:59;;;;;;;2.67;0.97;;;;;;;16.67;56.22;98607.34;8459655;28;20256;-65
2021/09/29 20:20:06;;;;;;;2.27;1.10;;;;;;;16.70;56.21;98615.84;8459510;28;20194;-65
2021/09/29 20:24:09;;;;;;;2.10;0.93;;;;;;;16.66;56.39;98626.56;8456818;28;20237;-65
2021/09/29 20:28:12;;;;;;;2.20;1.20;;;;;;;16.61;56.58;98630.28;8459425;28;20222;-65
2021/09/29 20:32:15;;;;;;;3.90;1.43;;;;;;;16.64;56.32;98626.69;8459440;28;20513;-65
2021/09/29 20:42:13;;;;;;;1.20;1.10;;;;;;;16.62;56.48;98623.31;8459378;28;20190;-65
2021/09/29 20:45:09;;;;;;;2.23;1.40;;;;;;;16.62;57.02;98641.63;8382938;28;20214;-65
2021/09/29 20:49:11;;;;;;;2.63;1.30;;;;;;;16.59;57.19;98647.03;8435784;28;20204;-64
2021/09/29 20:53:16;;;;;;;4.70;1.70;;;;;;;16.58;57.00;98646.19;8460014;28;20499;-65
2021/09/29 20:57:19;;;;;;;3.73;1.57;;;;;;;16.61;57.00;98646.00;8459326;28;20253;-66
2021/09/29 21:01:22;;;;;;;5.87;2.07;;;;;;;16.54;57.32;98652.50;8456316;28;20217;-66
2021/09/29 21:05:26;;;;;;;5.33;2.27;;;;;;;16.50;57.51;98660.63;8458798;28;20190;-65
2021/09/29 21:09:30;;;;;;;4.13;2.13;;;;;;;16.42;57.80;98661.06;8458641;28;20377;-65
2021/09/29 21:13:36;;;;;;;3.43;2.10;;;;;;;16.50;57.36;98677.13;8459150;28;20198;-65
2021/09/29 21:17:52;;;;;;;5.47;1.83;;;;;;;16.49;57.77;98680.69;8459634;28;20203;-65
2021/09/29 21:21:55;;;;;;;3.57;1.70;;;;;;;16.39;57.67;98677.78;8457114;28;20249;-65
2021/09/29 21:26:00;;;;;;;5.30;1.57;;;;;;;16.41;57.57;98696.81;8454143;28;20198;-65
2021/09/29 21:30:05;;;;;;;3.20;1.30;;;;;;;16.41;57.51;98699.44;8454173;28;20226;-65
2021/09/29 21:34:09;;;;;;;3.70;1.30;;;;;;;16.40;57.43;98696.91;8454163;28;20433;-65
2021/09/29 21:38:18;;;;;;;5.70;1.60;;;;;;;16.39;57.26;98703.03;8453803;28;20202;-65
2021/09/29 21:42:34;;;;;;;1.90;1.37;;;;;;;16.10;57.59;98715.97;8453740;28;20506;-66
2021/09/29 21:46:54;;;;;;;2.20;1.23;;;;;;;16.23;57.39;98722.19;8453883;28;20291;-65
2021/09/29 21:59:56;;;;;;;2.97;1.30;;;;;;;16.25;57.24;98734.34;8453231;28;20198;-66
2021/09/29 23:05:34;;;;;;;1.93;1.07;;;;;;;15.71;56.22;98787.69;8414970;28;20308;-64
2021/09/29 23:09:46;;;;;;;2.93;1.07;;;;;;;15.58;56.47;98797.06;8451198;28;20204;-64
2021/09/29 23:13:59;;;;;;;5.07;1.10;;;;;;;15.60;56.10;98803.91;8450958;28;20206;-64
2021/09/29 23:22:45;;;;;;;1.80;0.90;;;;;;;15.40;55.46;98812.75;8406510;28;20233;-64
2021/09/29 23:35:30;;;;;;;2.67;1.03;;;;;;;15.36;54.50;98816.41;8450446;28;20409;-64
2021/09/29 23:39:33;;;;;;;4.53;1.10;;;;;;;15.41;54.21;98821.44;8449819;28;20205;-64
2021/09/29 23:43:38;;;;;;;2.07;0.90;;;;;;;15.33;54.27;98829.66;8449763;28;20226;-64
2021/09/29 23:47:41;;;;;;;1.83;0.93;;;;;;;15.43;53.99;98841.28;8449298;28;20194;-64
2021/09/29 23:51:45;;;;;;;1.97;0.90;;;;;;;15.38;54.12;98842.44;8449742;28;20198;-64
2021/09/29 23:55:48;;;;;;;3.33;0.90;;;;;;;15.26;54.31;98849.13;8449714;28;20411;-64
2021/09/29 23:59:53;;;;;;;2.43;1.03;;;;;;;15.25;53.86;98857.91;8449901;28;20199;-64
